Slinger, Wisconsin
Current Conditions -  °F | °C
As of 11:30 AM on Monday 22 Dec 2014 (Local Time) from KETB Reporting Station
Overcast Overcast  
Wind Chill: 28°   Ceiling: 1000
Heat Index: 36°   Visibility: 7mi
Dew Point: 32°   Wind: 12mph
Humidity: 87%   Direction: 120°ESE
Pressure: 29.84"   Gusts: NA
Location:  43.33°N, 88.29°W
Report Text: KETB 221730Z AUTO 12010KT 7SM OVC010 02/00 A2984 RMK AO2
Loading
Personal Weather Stations






























Interactive Weather Map New forecast layout! Learn more

10-Day Weather Forecast

Advertisements
Track Severe Weather on mobile